sensor_id;sensor_type;location;lat;lon;timestamp;P1;durP1;ratioP1;P2;durP2;ratioP2
70975;SDS011;58635;51.198;6.010;2023-02-05T00:01:00;22.00;;;10.30;;
70975;SDS011;58635;51.198;6.010;2023-02-05T00:03:25;23.13;;;10.50;;
70975;SDS011;58635;51.198;6.010;2023-02-05T00:05:51;19.90;;;11.07;;
70975;SDS011;58635;51.198;6.010;2023-02-05T00:08:16;19.33;;;10.15;;
70975;SDS011;58635;51.198;6.010;2023-02-05T00:10:42;23.05;;;11.23;;
70975;SDS011;58635;51.198;6.010;2023-02-05T00:13:07;20.65;;;10.88;;
70975;SDS011;58635;51.198;6.010;2023-02-05T00:15:33;21.67;;;11.95;;
70975;SDS011;58635;51.198;6.010;2023-02-05T00:18:00;25.35;;;12.20;;
70975;SDS011;58635;51.198;6.010;2023-02-05T00:20:25;26.33;;;13.07;;
70975;SDS011;58635;51.198;6.010;2023-02-05T00:22:52;21.80;;;13.73;;
70975;SDS011;58635;51.198;6.010;2023-02-05T00:25:17;25.63;;;13.27;;
70975;SDS011;58635;51.198;6.010;2023-02-05T00:27:43;23.15;;;12.95;;
70975;SDS011;58635;51.198;6.010;2023-02-05T00:30:09;22.63;;;12.80;;
70975;SDS011;58635;51.198;6.010;2023-02-05T00:32:34;22.23;;;12.85;;
70975;SDS011;58635;51.198;6.010;2023-02-05T00:35:01;24.15;;;12.38;;
70975;SDS011;58635;51.198;6.010;2023-02-05T00:37:26;24.83;;;13.13;;
70975;SDS011;58635;51.198;6.010;2023-02-05T00:39:51;23.63;;;12.57;;
70975;SDS011;58635;51.198;6.010;2023-02-05T00:42:17;24.02;;;12.90;;
70975;SDS011;58635;51.198;6.010;2023-02-05T00:44:42;24.25;;;13.82;;
70975;SDS011;58635;51.198;6.010;2023-02-05T00:47:08;23.98;;;14.13;;
70975;SDS011;58635;51.198;6.010;2023-02-05T00:49:33;24.10;;;13.45;;
70975;SDS011;58635;51.198;6.010;2023-02-05T00:51:59;29.27;;;14.85;;
70975;SDS011;58635;51.198;6.010;2023-02-05T00:54:24;23.83;;;11.90;;
70975;SDS011;58635;51.198;6.010;2023-02-05T00:56:49;23.98;;;13.65;;
70975;SDS011;58635;51.198;6.010;2023-02-05T00:59:15;24.48;;;12.32;;
70975;SDS011;58635;51.198;6.010;2023-02-05T01:01:40;22.13;;;13.13;;
70975;SDS011;58635;51.198;6.010;2023-02-05T01:04:06;21.52;;;12.48;;
70975;SDS011;58635;51.198;6.010;2023-02-05T01:06:31;25.67;;;13.07;;
70975;SDS011;58635;51.198;6.010;2023-02-05T01:08:57;24.55;;;13.27;;
70975;SDS011;58635;51.198;6.010;2023-02-05T01:11:22;25.77;;;14.57;;
70975;SDS011;58635;51.198;6.010;2023-02-05T01:13:47;25.08;;;13.43;;
70975;SDS011;58635;51.198;6.010;2023-02-05T01:16:13;26.60;;;13.45;;
70975;SDS011;58635;51.198;6.010;2023-02-05T01:18:38;25.58;;;14.13;;
70975;SDS011;58635;51.198;6.010;2023-02-05T01:21:04;25.85;;;13.25;;
70975;SDS011;58635;51.198;6.010;2023-02-05T01:23:29;24.15;;;13.43;;
70975;SDS011;58635;51.198;6.010;2023-02-05T01:25:55;22.60;;;14.02;;
70975;SDS011;58635;51.198;6.010;2023-02-05T01:28:20;24.17;;;13.82;;
70975;SDS011;58635;51.198;6.010;2023-02-05T01:30:46;24.63;;;13.98;;
70975;SDS011;58635;51.198;6.010;2023-02-05T01:33:12;24.13;;;14.23;;
70975;SDS011;58635;51.198;6.010;2023-02-05T01:35:39;25.17;;;14.15;;
70975;SDS011;58635;51.198;6.010;2023-02-05T01:38:06;24.80;;;14.63;;
70975;SDS011;58635;51.198;6.010;2023-02-05T01:40:32;28.17;;;16.33;;
70975;SDS011;58635;51.198;6.010;2023-02-05T01:42:57;28.20;;;15.90;;
70975;SDS011;58635;51.198;6.010;2023-02-05T01:47:57;22.08;;;14.07;;
70975;SDS011;58635;51.198;6.010;2023-02-05T01:50:25;26.58;;;15.75;;
70975;SDS011;58635;51.198;6.010;2023-02-05T01:53:07;30.30;;;15.73;;
70975;SDS011;58635;51.198;6.010;2023-02-05T01:55:35;26.30;;;15.35;;
70975;SDS011;58635;51.198;6.010;2023-02-05T01:58:05;26.48;;;15.75;;
70975;SDS011;58635;51.198;6.010;2023-02-05T02:00:30;30.67;;;16.63;;
70975;SDS011;58635;51.198;6.010;2023-02-05T02:02:56;29.55;;;17.75;;
70975;SDS011;58635;51.198;6.010;2023-02-05T02:05:23;31.77;;;17.75;;
70975;SDS011;58635;51.198;6.010;2023-02-05T02:07:48;29.90;;;18.02;;
70975;SDS011;58635;51.198;6.010;2023-02-05T02:10:14;27.77;;;17.33;;
70975;SDS011;58635;51.198;6.010;2023-02-05T02:12:41;28.25;;;17.05;;
70975;SDS011;58635;51.198;6.010;2023-02-05T02:15:10;33.17;;;17.70;;
70975;SDS011;58635;51.198;6.010;2023-02-05T02:17:39;33.03;;;18.05;;
70975;SDS011;58635;51.198;6.010;2023-02-05T02:20:10;29.67;;;18.17;;
70975;SDS011;58635;51.198;6.010;2023-02-05T02:30:40;33.63;;;19.17;;
70975;SDS011;58635;51.198;6.010;2023-02-05T02:38:50;34.10;;;19.85;;
70975;SDS011;58635;51.198;6.010;2023-02-05T02:43:56;37.60;;;21.25;;
70975;SDS011;58635;51.198;6.010;2023-02-05T02:46:39;37.50;;;20.08;;
70975;SDS011;58635;51.198;6.010;2023-02-05T02:49:08;35.00;;;21.60;;
70975;SDS011;58635;51.198;6.010;2023-02-05T02:51:39;35.88;;;21.35;;
70975;SDS011;58635;51.198;6.010;2023-02-05T02:54:08;37.55;;;22.42;;
70975;SDS011;58635;51.198;6.010;2023-02-05T02:56:36;35.78;;;21.63;;
70975;SDS011;58635;51.198;6.010;2023-02-05T02:59:06;37.83;;;22.45;;
70975;SDS011;58635;51.198;6.010;2023-02-05T03:01:36;39.10;;;22.88;;
70975;SDS011;58635;51.198;6.010;2023-02-05T03:04:12;36.50;;;21.58;;
70975;SDS011;58635;51.198;6.010;2023-02-05T03:06:45;40.42;;;23.15;;
70975;SDS011;58635;51.198;6.010;2023-02-05T03:09:20;36.45;;;21.17;;
70975;SDS011;58635;51.198;6.010;2023-02-05T03:11:50;41.65;;;23.42;;
70975;SDS011;58635;51.198;6.010;2023-02-05T03:14:15;36.40;;;22.55;;
70975;SDS011;58635;51.198;6.010;2023-02-05T03:16:41;38.97;;;24.08;;
70975;SDS011;58635;51.198;6.010;2023-02-05T03:19:06;38.25;;;23.80;;
70975;SDS011;58635;51.198;6.010;2023-02-05T03:21:34;36.78;;;22.67;;
70975;SDS011;58635;51.198;6.010;2023-02-05T03:24:04;38.92;;;23.50;;
70975;SDS011;58635;51.198;6.010;2023-02-05T03:26:31;39.75;;;23.67;;
70975;SDS011;58635;51.198;6.010;2023-02-05T03:29:04;41.67;;;24.98;;
70975;SDS011;58635;51.198;6.010;2023-02-05T03:42:12;40.83;;;24.42;;
70975;SDS011;58635;51.198;6.010;2023-02-05T03:50:33;44.75;;;26.40;;
70975;SDS011;58635;51.198;6.010;2023-02-05T03:55:40;40.35;;;24.95;;
70975;SDS011;58635;51.198;6.010;2023-02-05T03:58:11;43.42;;;26.05;;
70975;SDS011;58635;51.198;6.010;2023-02-05T04:00:41;41.78;;;24.55;;
70975;SDS011;58635;51.198;6.010;2023-02-05T04:03:07;42.17;;;26.15;;
70975;SDS011;58635;51.198;6.010;2023-02-05T04:05:32;39.88;;;25.80;;
70975;SDS011;58635;51.198;6.010;2023-02-05T04:07:57;40.90;;;25.85;;
70975;SDS011;58635;51.198;6.010;2023-02-05T04:10:23;40.13;;;24.85;;
70975;SDS011;58635;51.198;6.010;2023-02-05T04:12:48;39.72;;;24.50;;
70975;SDS011;58635;51.198;6.010;2023-02-05T04:15:14;43.53;;;24.73;;
70975;SDS011;58635;51.198;6.010;2023-02-05T04:17:39;37.35;;;24.05;;
70975;SDS011;58635;51.198;6.010;2023-02-05T04:20:05;40.67;;;24.52;;
70975;SDS011;58635;51.198;6.010;2023-02-05T04:22:31;38.47;;;23.73;;
70975;SDS011;58635;51.198;6.010;2023-02-05T04:24:57;35.38;;;23.77;;
70975;SDS011;58635;51.198;6.010;2023-02-05T04:27:23;35.95;;;21.58;;
70975;SDS011;58635;51.198;6.010;2023-02-05T04:29:48;37.05;;;22.85;;
70975;SDS011;58635;51.198;6.010;2023-02-05T04:32:13;33.35;;;21.00;;
70975;SDS011;58635;51.198;6.010;2023-02-05T04:34:39;32.10;;;19.48;;
70975;SDS011;58635;51.198;6.010;2023-02-05T04:37:04;33.20;;;20.65;;
70975;SDS011;58635;51.198;6.010;2023-02-05T04:39:30;32.85;;;20.27;;
70975;SDS011;58635;51.198;6.010;2023-02-05T04:41:55;31.52;;;19.48;;
70975;SDS011;58635;51.198;6.010;2023-02-05T04:44:21;30.90;;;19.52;;
70975;SDS011;58635;51.198;6.010;2023-02-05T04:46:46;30.63;;;19.02;;
70975;SDS011;58635;51.198;6.010;2023-02-05T04:49:11;27.05;;;18.67;;
70975;SDS011;58635;51.198;6.010;2023-02-05T04:51:37;26.58;;;17.55;;
70975;SDS011;58635;51.198;6.010;2023-02-05T04:54:02;27.17;;;17.52;;
70975;SDS011;58635;51.198;6.010;2023-02-05T04:56:28;30.08;;;18.35;;
70975;SDS011;58635;51.198;6.010;2023-02-05T04:58:53;25.35;;;17.65;;
70975;SDS011;58635;51.198;6.010;2023-02-05T05:01:20;25.88;;;16.60;;
70975;SDS011;58635;51.198;6.010;2023-02-05T05:03:47;26.08;;;16.42;;
70975;SDS011;58635;51.198;6.010;2023-02-05T05:06:13;24.20;;;15.02;;
70975;SDS011;58635;51.198;6.010;2023-02-05T05:08:39;22.65;;;14.95;;
70975;SDS011;58635;51.198;6.010;2023-02-05T05:11:06;23.42;;;14.18;;
70975;SDS011;58635;51.198;6.010;2023-02-05T05:13:33;25.15;;;15.32;;
70975;SDS011;58635;51.198;6.010;2023-02-05T05:15:59;21.17;;;13.85;;
70975;SDS011;58635;51.198;6.010;2023-02-05T05:18:25;20.35;;;13.75;;
70975;SDS011;58635;51.198;6.010;2023-02-05T05:20:50;21.50;;;13.65;;
70975;SDS011;58635;51.198;6.010;2023-02-05T05:23:15;19.27;;;13.40;;
70975;SDS011;58635;51.198;6.010;2023-02-05T05:25:42;24.05;;;13.68;;
70975;SDS011;58635;51.198;6.010;2023-02-05T05:28:08;18.60;;;13.02;;
70975;SDS011;58635;51.198;6.010;2023-02-05T05:30:33;21.85;;;13.30;;
70975;SDS011;58635;51.198;6.010;2023-02-05T05:32:59;21.75;;;13.88;;
70975;SDS011;58635;51.198;6.010;2023-02-05T05:35:24;21.65;;;12.88;;
70975;SDS011;58635;51.198;6.010;2023-02-05T05:37:50;21.60;;;13.73;;
70975;SDS011;58635;51.198;6.010;2023-02-05T05:40:15;22.15;;;13.65;;
70975;SDS011;58635;51.198;6.010;2023-02-05T05:42:59;21.80;;;14.00;;
70975;SDS011;58635;51.198;6.010;2023-02-05T05:45:43;20.58;;;14.10;;
70975;SDS011;58635;51.198;6.010;2023-02-05T05:48:09;22.60;;;14.02;;
70975;SDS011;58635;51.198;6.010;2023-02-05T05:50:34;23.92;;;14.45;;
70975;SDS011;58635;51.198;6.010;2023-02-05T05:53:00;21.33;;;13.80;;
70975;SDS011;58635;51.198;6.010;2023-02-05T05:55:25;20.35;;;14.07;;
70975;SDS011;58635;51.198;6.010;2023-02-05T05:57:51;24.27;;;14.52;;
70975;SDS011;58635;51.198;6.010;2023-02-05T06:00:16;21.67;;;13.95;;
70975;SDS011;58635;51.198;6.010;2023-02-05T06:02:42;19.52;;;13.30;;
70975;SDS011;58635;51.198;6.010;2023-02-05T06:05:08;19.85;;;14.57;;
70975;SDS011;58635;51.198;6.010;2023-02-05T06:07:34;23.77;;;14.38;;
70975;SDS011;58635;51.198;6.010;2023-02-05T06:10:00;20.38;;;14.38;;
70975;SDS011;58635;51.198;6.010;2023-02-05T06:12:25;22.52;;;14.63;;
70975;SDS011;58635;51.198;6.010;2023-02-05T06:14:51;23.25;;;14.73;;
70975;SDS011;58635;51.198;6.010;2023-02-05T06:17:16;24.33;;;15.27;;
70975;SDS011;58635;51.198;6.010;2023-02-05T06:19:41;22.80;;;15.05;;
70975;SDS011;58635;51.198;6.010;2023-02-05T06:22:07;19.20;;;13.65;;
70975;SDS011;58635;51.198;6.010;2023-02-05T06:24:32;24.08;;;14.50;;
70975;SDS011;58635;51.198;6.010;2023-02-05T06:26:57;23.30;;;14.65;;
70975;SDS011;58635;51.198;6.010;2023-02-05T06:29:23;23.80;;;15.07;;
70975;SDS011;58635;51.198;6.010;2023-02-05T06:31:48;23.27;;;15.38;;
70975;SDS011;58635;51.198;6.010;2023-02-05T06:34:14;20.92;;;14.27;;
70975;SDS011;58635;51.198;6.010;2023-02-05T06:36:39;20.55;;;13.38;;
70975;SDS011;58635;51.198;6.010;2023-02-05T06:39:04;24.23;;;14.43;;
70975;SDS011;58635;51.198;6.010;2023-02-05T06:41:30;20.92;;;14.43;;
70975;SDS011;58635;51.198;6.010;2023-02-05T06:43:55;22.55;;;14.35;;
70975;SDS011;58635;51.198;6.010;2023-02-05T06:46:21;22.00;;;14.32;;
70975;SDS011;58635;51.198;6.010;2023-02-05T06:48:46;20.52;;;14.00;;
70975;SDS011;58635;51.198;6.010;2023-02-05T06:51:11;19.08;;;13.27;;
70975;SDS011;58635;51.198;6.010;2023-02-05T06:53:37;22.17;;;14.75;;
70975;SDS011;58635;51.198;6.010;2023-02-05T06:56:03;20.67;;;14.25;;
70975;SDS011;58635;51.198;6.010;2023-02-05T06:58:29;19.83;;;14.05;;
70975;SDS011;58635;51.198;6.010;2023-02-05T07:00:54;20.10;;;13.85;;
70975;SDS011;58635;51.198;6.010;2023-02-05T07:03:19;21.77;;;14.40;;
70975;SDS011;58635;51.198;6.010;2023-02-05T07:05:45;19.15;;;12.52;;
70975;SDS011;58635;51.198;6.010;2023-02-05T07:08:10;19.50;;;13.50;;
70975;SDS011;58635;51.198;6.010;2023-02-05T07:10:36;19.52;;;13.77;;
70975;SDS011;58635;51.198;6.010;2023-02-05T07:13:01;17.77;;;12.85;;
70975;SDS011;58635;51.198;6.010;2023-02-05T07:15:26;19.40;;;13.02;;
70975;SDS011;58635;51.198;6.010;2023-02-05T07:17:52;16.77;;;12.05;;
70975;SDS011;58635;51.198;6.010;2023-02-05T07:20:17;18.83;;;13.32;;
70975;SDS011;58635;51.198;6.010;2023-02-05T07:22:43;20.23;;;13.02;;
70975;SDS011;58635;51.198;6.010;2023-02-05T07:25:08;18.77;;;12.73;;
70975;SDS011;58635;51.198;6.010;2023-02-05T07:27:33;17.00;;;12.45;;
70975;SDS011;58635;51.198;6.010;2023-02-05T07:29:59;14.82;;;10.50;;
70975;SDS011;58635;51.198;6.010;2023-02-05T07:32:24;12.88;;;9.15;;
70975;SDS011;58635;51.198;6.010;2023-02-05T07:34:50;13.60;;;9.20;;
70975;SDS011;58635;51.198;6.010;2023-02-05T07:37:15;12.60;;;9.05;;
70975;SDS011;58635;51.198;6.010;2023-02-05T07:39:41;13.20;;;9.10;;
70975;SDS011;58635;51.198;6.010;2023-02-05T07:42:06;11.48;;;7.70;;
70975;SDS011;58635;51.198;6.010;2023-02-05T07:44:32;11.40;;;7.00;;
70975;SDS011;58635;51.198;6.010;2023-02-05T07:46:57;9.23;;;5.93;;
70975;SDS011;58635;51.198;6.010;2023-02-05T07:49:23;7.30;;;4.95;;
70975;SDS011;58635;51.198;6.010;2023-02-05T07:51:48;5.88;;;4.10;;
70975;SDS011;58635;51.198;6.010;2023-02-05T07:54:14;6.07;;;2.97;;
70975;SDS011;58635;51.198;6.010;2023-02-05T07:56:40;6.55;;;3.10;;
70975;SDS011;58635;51.198;6.010;2023-02-05T07:59:06;7.97;;;4.30;;
70975;SDS011;58635;51.198;6.010;2023-02-05T08:01:32;15.57;;;5.20;;
70975;SDS011;58635;51.198;6.010;2023-02-05T08:03:59;12.20;;;3.97;;
70975;SDS011;58635;51.198;6.010;2023-02-05T08:06:24;8.50;;;2.55;;
70975;SDS011;58635;51.198;6.010;2023-02-05T08:08:50;10.48;;;3.03;;
70975;SDS011;58635;51.198;6.010;2023-02-05T08:11:16;6.55;;;1.70;;
70975;SDS011;58635;51.198;6.010;2023-02-05T08:13:42;5.05;;;1.35;;
70975;SDS011;58635;51.198;6.010;2023-02-05T08:16:08;10.60;;;2.67;;
70975;SDS011;58635;51.198;6.010;2023-02-05T08:18:35;12.77;;;3.35;;
70975;SDS011;58635;51.198;6.010;2023-02-05T08:21:01;11.18;;;3.78;;
70975;SDS011;58635;51.198;6.010;2023-02-05T08:23:26;6.20;;;1.92;;
70975;SDS011;58635;51.198;6.010;2023-02-05T08:25:53;10.52;;;3.38;;
70975;SDS011;58635;51.198;6.010;2023-02-05T08:28:19;5.65;;;1.30;;
70975;SDS011;58635;51.198;6.010;2023-02-05T08:30:45;7.10;;;2.08;;
70975;SDS011;58635;51.198;6.010;2023-02-05T08:33:11;7.57;;;1.95;;
70975;SDS011;58635;51.198;6.010;2023-02-05T08:35:36;6.95;;;1.40;;
70975;SDS011;58635;51.198;6.010;2023-02-05T08:38:01;7.20;;;1.98;;
70975;SDS011;58635;51.198;6.010;2023-02-05T08:40:27;8.18;;;1.67;;
70975;SDS011;58635;51.198;6.010;2023-02-05T08:42:52;10.20;;;2.60;;
70975;SDS011;58635;51.198;6.010;2023-02-05T08:45:21;6.88;;;2.00;;
70975;SDS011;58635;51.198;6.010;2023-02-05T08:47:47;7.88;;;1.77;;
70975;SDS011;58635;51.198;6.010;2023-02-05T08:50:12;8.48;;;1.70;;
70975;SDS011;58635;51.198;6.010;2023-02-05T08:52:41;5.40;;;1.80;;
70975;SDS011;58635;51.198;6.010;2023-02-05T08:55:06;10.32;;;2.95;;
70975;SDS011;58635;51.198;6.010;2023-02-05T08:57:32;14.20;;;2.92;;
70975;SDS011;58635;51.198;6.010;2023-02-05T08:59:58;12.38;;;3.53;;
70975;SDS011;58635;51.198;6.010;2023-02-05T09:02:24;12.77;;;4.30;;
70975;SDS011;58635;51.198;6.010;2023-02-05T09:04:49;7.40;;;2.60;;
70975;SDS011;58635;51.198;6.010;2023-02-05T09:07:15;7.95;;;2.33;;
70975;SDS011;58635;51.198;6.010;2023-02-05T09:09:41;9.48;;;2.30;;
70975;SDS011;58635;51.198;6.010;2023-02-05T09:12:06;12.15;;;2.92;;
70975;SDS011;58635;51.198;6.010;2023-02-05T09:14:32;7.88;;;2.20;;
70975;SDS011;58635;51.198;6.010;2023-02-05T09:17:03;8.55;;;2.88;;
70975;SDS011;58635;51.198;6.010;2023-02-05T09:19:33;8.20;;;1.63;;
70975;SDS011;58635;51.198;6.010;2023-02-05T09:22:00;8.07;;;2.30;;
70975;SDS011;58635;51.198;6.010;2023-02-05T09:24:26;8.90;;;1.70;;
70975;SDS011;58635;51.198;6.010;2023-02-05T09:26:51;8.18;;;2.28;;
70975;SDS011;58635;51.198;6.010;2023-02-05T09:29:17;8.75;;;2.20;;
70975;SDS011;58635;51.198;6.010;2023-02-05T09:31:42;9.13;;;1.98;;
70975;SDS011;58635;51.198;6.010;2023-02-05T09:34:08;13.40;;;2.75;;
70975;SDS011;58635;51.198;6.010;2023-02-05T09:36:33;12.98;;;2.70;;
70975;SDS011;58635;51.198;6.010;2023-02-05T09:38:58;7.70;;;1.75;;
70975;SDS011;58635;51.198;6.010;2023-02-05T09:49:20;7.97;;;1.77;;
70975;SDS011;58635;51.198;6.010;2023-02-05T09:52:03;7.80;;;2.10;;
70975;SDS011;58635;51.198;6.010;2023-02-05T09:54:43;9.98;;;2.60;;
70975;SDS011;58635;51.198;6.010;2023-02-05T09:57:15;12.25;;;3.15;;
70975;SDS011;58635;51.198;6.010;2023-02-05T09:59:44;10.45;;;2.92;;
70975;SDS011;58635;51.198;6.010;2023-02-05T10:02:20;13.70;;;3.30;;
70975;SDS011;58635;51.198;6.010;2023-02-05T10:04:50;10.82;;;2.47;;
70975;SDS011;58635;51.198;6.010;2023-02-05T10:16:15;9.25;;;3.03;;
70975;SDS011;58635;51.198;6.010;2023-02-05T10:26:45;10.95;;;2.28;;
70975;SDS011;58635;51.198;6.010;2023-02-05T10:31:43;13.50;;;3.15;;
70975;SDS011;58635;51.198;6.010;2023-02-05T10:37:09;12.45;;;3.10;;
70975;SDS011;58635;51.198;6.010;2023-02-05T10:39:39;16.20;;;3.53;;
70975;SDS011;58635;51.198;6.010;2023-02-05T10:44:36;18.30;;;3.65;;
70975;SDS011;58635;51.198;6.010;2023-02-05T10:47:15;18.75;;;3.63;;
70975;SDS011;58635;51.198;6.010;2023-02-05T10:49:55;17.30;;;3.47;;
70975;SDS011;58635;51.198;6.010;2023-02-05T10:52:25;14.40;;;3.35;;
70975;SDS011;58635;51.198;6.010;2023-02-05T10:54:51;18.52;;;3.83;;
70975;SDS011;58635;51.198;6.010;2023-02-05T10:57:17;17.20;;;4.43;;
70975;SDS011;58635;51.198;6.010;2023-02-05T10:59:54;16.70;;;3.33;;
70975;SDS011;58635;51.198;6.010;2023-02-05T11:02:24;13.52;;;3.80;;
70975;SDS011;58635;51.198;6.010;2023-02-05T11:05:07;17.65;;;4.13;;
70975;SDS011;58635;51.198;6.010;2023-02-05T11:07:44;17.48;;;3.92;;
70975;SDS011;58635;51.198;6.010;2023-02-05T11:10:22;17.00;;;3.70;;
70975;SDS011;58635;51.198;6.010;2023-02-05T11:12:53;20.33;;;4.30;;
70975;SDS011;58635;51.198;6.010;2023-02-05T11:15:22;20.58;;;4.40;;
70975;SDS011;58635;51.198;6.010;2023-02-05T11:17:50;21.23;;;4.28;;
70975;SDS011;58635;51.198;6.010;2023-02-05T11:22:43;18.75;;;4.68;;
70975;SDS011;58635;51.198;6.010;2023-02-05T11:27:54;24.73;;;5.78;;
70975;SDS011;58635;51.198;6.010;2023-02-05T11:32:52;20.77;;;4.20;;
70975;SDS011;58635;51.198;6.010;2023-02-05T11:37:43;15.98;;;3.55;;
70975;SDS011;58635;51.198;6.010;2023-02-05T11:40:44;20.35;;;3.55;;
70975;SDS011;58635;51.198;6.010;2023-02-05T11:43:06;19.02;;;3.38;;
70975;SDS011;58635;51.198;6.010;2023-02-05T11:45:45;19.15;;;3.95;;
70975;SDS011;58635;51.198;6.010;2023-02-05T11:48:48;19.63;;;3.78;;
70975;SDS011;58635;51.198;6.010;2023-02-05T11:53:35;17.95;;;3.72;;
70975;SDS011;58635;51.198;6.010;2023-02-05T11:56:06;22.55;;;4.10;;
70975;SDS011;58635;51.198;6.010;2023-02-05T11:58:34;21.30;;;5.05;;
70975;SDS011;58635;51.198;6.010;2023-02-05T12:01:03;22.50;;;4.20;;
70975;SDS011;58635;51.198;6.010;2023-02-05T12:03:31;19.17;;;4.93;;
70975;SDS011;58635;51.198;6.010;2023-02-05T12:16:14;18.02;;;4.00;;
70975;SDS011;58635;51.198;6.010;2023-02-05T12:19:16;16.05;;;3.85;;
70975;SDS011;58635;51.198;6.010;2023-02-05T12:27:13;17.33;;;3.60;;
70975;SDS011;58635;51.198;6.010;2023-02-05T12:33:05;13.63;;;3.08;;
70975;SDS011;58635;51.198;6.010;2023-02-05T12:35:56;13.40;;;3.05;;
70975;SDS011;58635;51.198;6.010;2023-02-05T12:54:53;15.48;;;2.50;;
70975;SDS011;58635;51.198;6.010;2023-02-05T12:58:03;18.90;;;3.50;;
70975;SDS011;58635;51.198;6.010;2023-02-05T13:00:25;17.73;;;4.97;;
70975;SDS011;58635;51.198;6.010;2023-02-05T13:03:42;20.40;;;4.83;;
70975;SDS011;58635;51.198;6.010;2023-02-05T13:05:46;13.00;;;3.35;;
70975;SDS011;58635;51.198;6.010;2023-02-05T13:08:18;17.33;;;3.47;;
70975;SDS011;58635;51.198;6.010;2023-02-05T13:11:16;12.80;;;3.08;;
70975;SDS011;58635;51.198;6.010;2023-02-05T13:13:53;14.52;;;2.83;;
70975;SDS011;58635;51.198;6.010;2023-02-05T13:16:39;12.57;;;2.55;;
70975;SDS011;58635;51.198;6.010;2023-02-05T13:19:13;9.02;;;2.25;;
70975;SDS011;58635;51.198;6.010;2023-02-05T13:21:54;13.45;;;2.80;;
70975;SDS011;58635;51.198;6.010;2023-02-05T13:27:32;15.75;;;3.03;;
70975;SDS011;58635;51.198;6.010;2023-02-05T13:30:20;14.85;;;3.20;;
70975;SDS011;58635;51.198;6.010;2023-02-05T13:32:50;13.70;;;3.15;;
70975;SDS011;58635;51.198;6.010;2023-02-05T13:35:20;18.98;;;3.28;;
70975;SDS011;58635;51.198;6.010;2023-02-05T13:37:59;23.20;;;5.35;;
70975;SDS011;58635;51.198;6.010;2023-02-05T13:49:44;11.27;;;2.88;;
70975;SDS011;58635;51.198;6.010;2023-02-05T13:55:21;19.88;;;3.65;;
70975;SDS011;58635;51.198;6.010;2023-02-05T13:58:07;18.50;;;3.67;;
70975;SDS011;58635;51.198;6.010;2023-02-05T14:01:01;14.57;;;3.25;;
70975;SDS011;58635;51.198;6.010;2023-02-05T14:03:31;16.20;;;3.22;;
70975;SDS011;58635;51.198;6.010;2023-02-05T14:06:13;16.27;;;3.33;;
70975;SDS011;58635;51.198;6.010;2023-02-05T14:08:46;17.85;;;3.40;;
70975;SDS011;58635;51.198;6.010;2023-02-05T14:11:14;16.88;;;3.70;;
70975;SDS011;58635;51.198;6.010;2023-02-05T14:13:40;19.40;;;3.30;;
70975;SDS011;58635;51.198;6.010;2023-02-05T14:23:56;13.65;;;2.97;;
70975;SDS011;58635;51.198;6.010;2023-02-05T14:27:18;11.20;;;2.20;;
70975;SDS011;58635;51.198;6.010;2023-02-05T14:32:05;14.90;;;2.72;;
70975;SDS011;58635;51.198;6.010;2023-02-05T14:36:57;15.60;;;2.70;;
70975;SDS011;58635;51.198;6.010;2023-02-05T14:39:26;10.68;;;2.33;;
70975;SDS011;58635;51.198;6.010;2023-02-05T14:41:58;18.02;;;2.88;;
70975;SDS011;58635;51.198;6.010;2023-02-05T14:49:47;12.43;;;2.50;;
70975;SDS011;58635;51.198;6.010;2023-02-05T14:52:33;12.55;;;2.08;;
70975;SDS011;58635;51.198;6.010;2023-02-05T14:55:05;12.82;;;2.97;;
70975;SDS011;58635;51.198;6.010;2023-02-05T14:57:51;12.88;;;2.70;;
70975;SDS011;58635;51.198;6.010;2023-02-05T15:00:26;13.43;;;2.50;;
70975;SDS011;58635;51.198;6.010;2023-02-05T15:19:41;16.42;;;3.10;;
70975;SDS011;58635;51.198;6.010;2023-02-05T15:22:22;19.35;;;3.30;;
70975;SDS011;58635;51.198;6.010;2023-02-05T15:24:51;20.75;;;3.25;;
70975;SDS011;58635;51.198;6.010;2023-02-05T15:27:22;18.92;;;3.40;;
70975;SDS011;58635;51.198;6.010;2023-02-05T15:29:54;14.02;;;3.10;;
70975;SDS011;58635;51.198;6.010;2023-02-05T15:32:24;16.67;;;3.40;;
70975;SDS011;58635;51.198;6.010;2023-02-05T15:34:54;15.38;;;3.28;;
70975;SDS011;58635;51.198;6.010;2023-02-05T15:37:35;15.82;;;2.95;;
70975;SDS011;58635;51.198;6.010;2023-02-05T15:40:11;15.45;;;3.15;;
70975;SDS011;58635;51.198;6.010;2023-02-05T15:42:44;16.25;;;3.20;;
70975;SDS011;58635;51.198;6.010;2023-02-05T15:45:15;16.73;;;3.15;;
70975;SDS011;58635;51.198;6.010;2023-02-05T15:48:04;15.85;;;3.40;;
70975;SDS011;58635;51.198;6.010;2023-02-05T15:50:41;17.30;;;3.28;;
70975;SDS011;58635;51.198;6.010;2023-02-05T15:53:42;21.00;;;4.30;;
70975;SDS011;58635;51.198;6.010;2023-02-05T15:56:13;14.88;;;3.20;;
70975;SDS011;58635;51.198;6.010;2023-02-05T15:58:51;17.50;;;2.97;;
70975;SDS011;58635;51.198;6.010;2023-02-05T16:01:21;16.58;;;3.30;;
70975;SDS011;58635;51.198;6.010;2023-02-05T16:03:54;16.85;;;3.67;;
70975;SDS011;58635;51.198;6.010;2023-02-05T16:06:20;16.42;;;3.72;;
70975;SDS011;58635;51.198;6.010;2023-02-05T16:08:48;13.50;;;3.50;;
70975;SDS011;58635;51.198;6.010;2023-02-05T16:11:32;16.88;;;3.13;;
70975;SDS011;58635;51.198;6.010;2023-02-05T16:14:06;16.55;;;3.05;;
70975;SDS011;58635;51.198;6.010;2023-02-05T16:16:38;14.93;;;2.85;;
70975;SDS011;58635;51.198;6.010;2023-02-05T16:19:11;19.63;;;3.42;;
70975;SDS011;58635;51.198;6.010;2023-02-05T16:21:45;18.58;;;3.08;;
70975;SDS011;58635;51.198;6.010;2023-02-05T16:24:21;14.32;;;2.92;;
70975;SDS011;58635;51.198;6.010;2023-02-05T16:27:15;16.13;;;2.70;;
70975;SDS011;58635;51.198;6.010;2023-02-05T16:29:48;14.02;;;2.63;;
70975;SDS011;58635;51.198;6.010;2023-02-05T16:32:35;14.80;;;3.20;;
70975;SDS011;58635;51.198;6.010;2023-02-05T16:35:03;16.08;;;3.08;;
70975;SDS011;58635;51.198;6.010;2023-02-05T16:37:33;12.25;;;2.78;;
70975;SDS011;58635;51.198;6.010;2023-02-05T16:40:00;17.27;;;2.83;;
70975;SDS011;58635;51.198;6.010;2023-02-05T16:42:37;15.18;;;3.08;;
70975;SDS011;58635;51.198;6.010;2023-02-05T16:47:33;20.58;;;3.63;;
70975;SDS011;58635;51.198;6.010;2023-02-05T16:49:59;14.55;;;2.80;;
70975;SDS011;58635;51.198;6.010;2023-02-05T16:52:30;18.48;;;3.10;;
70975;SDS011;58635;51.198;6.010;2023-02-05T16:55:12;17.20;;;2.90;;
70975;SDS011;58635;51.198;6.010;2023-02-05T16:57:42;15.35;;;2.80;;
70975;SDS011;58635;51.198;6.010;2023-02-05T17:00:24;13.40;;;2.83;;
70975;SDS011;58635;51.198;6.010;2023-02-05T17:02:58;14.85;;;3.25;;
70975;SDS011;58635;51.198;6.010;2023-02-05T17:05:31;13.40;;;2.92;;
70975;SDS011;58635;51.198;6.010;2023-02-05T17:08:00;14.95;;;3.17;;
70975;SDS011;58635;51.198;6.010;2023-02-05T17:10:29;12.63;;;2.65;;
70975;SDS011;58635;51.198;6.010;2023-02-05T17:12:55;14.25;;;3.40;;
70975;SDS011;58635;51.198;6.010;2023-02-05T17:15:33;19.45;;;3.75;;
70975;SDS011;58635;51.198;6.010;2023-02-05T17:18:22;13.57;;;3.00;;
70975;SDS011;58635;51.198;6.010;2023-02-05T17:23:50;14.82;;;3.13;;
70975;SDS011;58635;51.198;6.010;2023-02-05T17:26:16;17.55;;;3.80;;
70975;SDS011;58635;51.198;6.010;2023-02-05T17:28:44;16.70;;;4.10;;
70975;SDS011;58635;51.198;6.010;2023-02-05T17:31:14;14.82;;;3.00;;
70975;SDS011;58635;51.198;6.010;2023-02-05T17:33:41;14.70;;;3.08;;
70975;SDS011;58635;51.198;6.010;2023-02-05T17:36:08;17.60;;;3.08;;
70975;SDS011;58635;51.198;6.010;2023-02-05T17:38:40;15.18;;;2.75;;